createdAt,value
2022-08-11T00:02:34.166Z,25.38
2022-08-11T00:05:12.042Z,34.67
2022-08-11T00:07:48.222Z,28.95
2022-08-11T00:10:18.952Z,33.42
2022-08-11T00:12:53.650Z,29.30
2022-08-11T00:15:23.869Z,25.02
2022-08-11T00:17:53.936Z,28.17
2022-08-11T00:20:23.876Z,26.70
2022-08-11T00:22:53.768Z,29.30
2022-08-11T00:25:23.806Z,29.10
2022-08-11T00:27:53.871Z,26.83
2022-08-11T00:30:23.745Z,28.92
2022-08-11T00:32:58.065Z,31.73
2022-08-11T00:35:51.124Z,25.15
2022-08-11T00:38:20.467Z,31.65
2022-08-11T00:40:59.732Z,29.88
2022-08-11T00:43:39.494Z,33.85
2022-08-11T00:46:14.381Z,29.35
2022-08-11T00:48:47.267Z,46.17
2022-08-11T00:51:17.080Z,31.10
2022-08-11T00:53:52.316Z,40.08
2022-08-11T00:56:22.189Z,43.00
2022-08-11T00:59:26.380Z,46.53
2022-08-11T01:02:12.753Z,45.03
2022-08-11T01:04:42.674Z,38.65
2022-08-11T01:07:12.604Z,40.58
2022-08-11T01:09:47.703Z,38.80
2022-08-11T01:12:29.797Z,37.78
2022-08-11T01:15:16.344Z,34.20
2022-08-11T01:17:55.329Z,31.17
2022-08-11T01:23:17.679Z,38.38
2022-08-11T01:25:57.916Z,35.10
2022-08-11T01:28:34.477Z,39.00
2022-08-11T01:31:23.662Z,33.53
2022-08-11T01:33:53.760Z,35.17
2022-08-11T01:36:26.992Z,58.50
2022-08-11T01:39:12.685Z,67.57
2022-08-11T01:42:24.940Z,35.60
2022-08-11T01:45:13.130Z,30.83
2022-08-11T01:47:55.177Z,26.27
2022-08-11T01:50:39.092Z,28.60
2022-08-11T01:53:27.585Z,26.55
2022-08-11T01:56:15.749Z,25.23
2022-08-11T01:58:54.899Z,33.60
2022-08-11T02:01:27.955Z,31.75
2022-08-11T02:04:10.292Z,31.83
2022-08-11T02:06:57.971Z,31.42
2022-08-11T02:09:37.008Z,34.17
2022-08-11T02:12:13.383Z,30.95
2022-08-11T02:15:04.369Z,29.15
2022-08-11T02:17:44.667Z,32.90
2022-08-11T02:20:55.516Z,34.15
2022-08-11T02:24:07.166Z,30.38
2022-08-11T02:26:34.423Z,31.55
2022-08-11T02:29:08.211Z,31.60
2022-08-11T02:32:14.832Z,36.80
2022-08-11T02:35:12.081Z,35.35
2022-08-11T02:38:00.327Z,30.85
2022-08-11T02:40:48.425Z,33.05
2022-08-11T02:43:21.441Z,40.10
2022-08-11T02:45:55.525Z,35.92
2022-08-11T02:48:52.926Z,34.40
2022-08-11T02:51:28.820Z,37.85
2022-08-11T02:54:13.942Z,32.05
2022-08-11T02:56:46.045Z,30.70
2022-08-11T02:59:33.921Z,31.70
2022-08-11T03:02:21.873Z,36.83
2022-08-11T03:05:09.949Z,35.55
2022-08-11T03:07:53.541Z,36.57
2022-08-11T03:10:46.081Z,39.08
2022-08-11T03:13:34.055Z,34.45
2022-08-11T03:16:33.231Z,37.58
2022-08-11T03:19:21.450Z,37.30
2022-08-11T03:22:03.298Z,39.35
2022-08-11T03:24:36.450Z,38.22
2022-08-11T03:27:37.002Z,37.88
2022-08-11T03:30:13.108Z,38.00
2022-08-11T03:33:07.402Z,31.80
2022-08-11T03:35:40.400Z,39.08
2022-08-11T03:38:11.787Z,36.22
2022-08-11T03:42:03.115Z,37.13
2022-08-11T03:44:18.291Z,37.90
2022-08-11T03:47:06.324Z,36.00
2022-08-11T03:49:56.622Z,36.90
2022-08-11T03:52:35.398Z,41.13
2022-08-11T03:55:23.591Z,33.83
2022-08-11T03:57:53.465Z,35.92
2022-08-11T04:00:29.082Z,34.80
2022-08-11T04:03:04.905Z,30.05
2022-08-11T04:05:49.886Z,29.88
2022-08-11T04:08:34.466Z,33.72
2022-08-11T04:11:11.606Z,32.15
2022-08-11T04:14:19.211Z,34.72
2022-08-11T04:17:04.422Z,38.17
2022-08-11T04:19:44.018Z,32.50
2022-08-11T04:22:17.162Z,35.17
2022-08-11T04:24:50.301Z,37.58
2022-08-11T04:27:20.207Z,33.55
2022-08-11T04:30:05.844Z,32.53
2022-08-11T04:32:56.906Z,33.13
2022-08-11T04:35:32.942Z,34.10
2022-08-11T04:38:08.619Z,30.13
2022-08-11T04:40:56.535Z,33.08
2022-08-11T04:44:06.398Z,32.53
2022-08-11T04:46:45.833Z,31.27
2022-08-11T04:49:56.695Z,26.55
2022-08-11T04:53:03.051Z,27.67
2022-08-11T04:55:53.782Z,25.38
2022-08-11T04:59:00.371Z,29.55
2022-08-11T05:01:45.420Z,21.95
2022-08-11T05:04:45.737Z,20.42
2022-08-11T05:07:33.998Z,20.77
2022-08-11T05:10:06.621Z,17.70
2022-08-11T05:12:45.381Z,21.13
2022-08-11T05:15:42.961Z,23.45
2022-08-11T05:18:35.667Z,25.02
2022-08-11T05:21:27.531Z,32.78
2022-08-11T05:24:17.732Z,28.42
2022-08-11T05:27:13.353Z,24.38
2022-08-11T05:30:27.856Z,27.13
2022-08-11T05:33:32.914Z,28.30
2022-08-11T05:36:10.600Z,35.00
2022-08-11T05:38:58.636Z,32.83
2022-08-11T05:41:46.838Z,31.90
2022-08-11T05:44:38.968Z,27.02
2022-08-11T05:47:27.622Z,29.42
2022-08-11T05:50:15.657Z,31.27
2022-08-11T05:53:09.205Z,39.00
2022-08-11T05:56:03.037Z,50.25
2022-08-11T05:58:41.345Z,41.75
2022-08-11T06:01:11.935Z,47.97
2022-08-11T06:03:59.353Z,46.20
2022-08-11T06:06:28.950Z,36.83
2022-08-11T06:08:59.020Z,41.08
2022-08-11T06:11:43.792Z,41.58
2022-08-11T06:14:14.111Z,35.33
2022-08-11T06:16:47.384Z,34.17
2022-08-11T06:19:16.988Z,27.98
2022-08-11T06:21:50.298Z,30.85
2022-08-11T06:24:20.661Z,25.30
2022-08-11T06:27:11.168Z,31.05
2022-08-11T06:29:47.842Z,23.88
2022-08-11T06:32:27.015Z,28.27
2022-08-11T06:35:14.913Z,23.85
2022-08-11T06:37:59.126Z,29.23
2022-08-11T06:41:07.115Z,23.70
2022-08-11T06:43:40.900Z,23.98
2022-08-11T06:46:32.423Z,27.13
2022-08-11T06:49:04.096Z,29.98
2022-08-11T06:51:33.640Z,32.13
2022-08-11T06:54:05.664Z,28.73
2022-08-11T06:57:28.470Z,26.52
2022-08-11T07:00:03.713Z,25.90
2022-08-11T07:02:35.517Z,41.10
2022-08-11T07:05:11.670Z,45.30
2022-08-11T07:08:33.727Z,66.95
2022-08-11T07:11:41.366Z,64.32
2022-08-11T07:14:29.078Z,54.83
2022-08-11T07:16:58.637Z,45.72
2022-08-11T07:19:46.554Z,172.05
2022-08-11T07:22:34.507Z,47.05
2022-08-11T07:25:22.566Z,54.08
2022-08-11T07:28:17.271Z,44.70
2022-08-11T07:30:46.952Z,44.30
2022-08-11T07:34:07.557Z,42.88
2022-08-11T07:36:19.245Z,50.97
2022-08-11T07:38:52.721Z,45.22
2022-08-11T07:41:23.133Z,72.85
2022-08-11T07:43:56.824Z,64.20
2022-08-11T07:46:44.411Z,59.22
2022-08-11T07:49:32.229Z,53.40
2022-08-11T07:52:19.961Z,86.13
2022-08-11T07:54:51.294Z,76.00
2022-08-11T07:58:13.960Z,68.18
2022-08-11T08:00:47.232Z,66.50
2022-08-11T08:03:39.484Z,47.95
2022-08-11T08:06:42.319Z,44.10
2022-08-11T08:09:30.184Z,38.30
2022-08-11T08:12:17.843Z,178.30
2022-08-11T08:15:05.832Z,106.05
2022-08-11T08:18:09.138Z,75.32
2022-08-11T08:20:46.823Z,34.92
2022-08-11T08:23:16.537Z,35.13
2022-08-11T08:25:46.694Z,84.18
2022-08-11T08:28:17.916Z,46.38
2022-08-11T08:30:51.860Z,102.70
2022-08-11T08:33:25.398Z,70.93
2022-08-11T08:36:13.091Z,42.15
2022-08-11T08:38:46.726Z,35.05
2022-08-11T08:41:16.736Z,25.70
2022-08-11T08:43:49.035Z,21.83
2022-08-11T08:46:19.069Z,23.33
2022-08-11T08:48:49.125Z,25.15
2022-08-11T08:52:02.501Z,44.60
2022-08-11T08:54:38.770Z,30.95
2022-08-11T08:57:08.800Z,30.67
2022-08-11T08:59:48.907Z,17.85
2022-08-11T09:02:33.998Z,19.13
2022-08-11T09:05:07.669Z,23.23
2022-08-11T09:07:38.659Z,30.67
2022-08-11T09:10:10.300Z,23.40
2022-08-11T09:12:39.997Z,21.00
2022-08-11T09:15:11.534Z,21.08
2022-08-11T09:17:46.192Z,18.58
2022-08-11T09:20:16.754Z,24.27
2022-08-11T09:24:08.335Z,19.30
2022-08-11T09:26:21.550Z,19.30
2022-08-11T09:28:54.152Z,28.63
2022-08-11T09:31:24.390Z,16.73
2022-08-11T09:33:54.358Z,23.20
2022-08-11T09:36:42.281Z,18.23
2022-08-11T09:39:31.201Z,16.50
2022-08-11T09:42:03.362Z,16.45
2022-08-11T09:44:50.514Z,17.98
2022-08-11T09:47:31.102Z,16.85
2022-08-11T09:50:04.902Z,16.75
2022-08-11T09:52:57.192Z,13.40
2022-08-11T09:55:27.022Z,11.43
2022-08-11T09:58:41.495Z,11.13
2022-08-11T10:01:05.128Z,12.43
2022-08-11T10:03:38.265Z,11.02
2022-08-11T10:06:33.118Z,8.20
2022-08-11T10:09:04.476Z,8.50
2022-08-11T10:11:34.095Z,8.23
2022-08-11T10:14:33.905Z,6.15
2022-08-11T10:17:08.847Z,14.25
2022-08-11T10:19:41.656Z,8.90
2022-08-11T10:22:32.903Z,9.95
2022-08-11T10:25:20.757Z,10.98
2022-08-11T10:28:28.254Z,13.43
2022-08-11T10:31:12.738Z,8.43
2022-08-11T10:34:02.527Z,9.80
2022-08-11T10:36:35.726Z,9.38
2022-08-11T10:39:06.163Z,10.98
2022-08-11T10:42:08.597Z,10.25
2022-08-11T10:44:43.695Z,18.73
2022-08-11T10:47:31.740Z,9.05
2022-08-11T10:50:19.461Z,9.35
2022-08-11T10:53:10.736Z,10.90
2022-08-11T10:55:58.962Z,9.35
2022-08-11T10:59:07.485Z,13.15
2022-08-11T11:01:38.890Z,10.95
2022-08-11T11:04:12.243Z,10.05
2022-08-11T11:06:54.120Z,9.60
2022-08-11T11:09:26.755Z,9.10
2022-08-11T11:12:19.653Z,11.02
2022-08-11T11:15:08.379Z,5.90
2022-08-11T11:18:03.778Z,6.68
2022-08-11T11:21:13.503Z,10.68
2022-08-11T11:23:50.008Z,13.20
2022-08-11T11:27:05.656Z,13.40
2022-08-11T11:29:45.539Z,9.00
2022-08-11T11:32:24.645Z,11.25
2022-08-11T11:37:25.883Z,15.15
2022-08-11T11:39:56.283Z,15.23
2022-08-11T11:42:26.584Z,19.98
2022-08-11T11:45:01.335Z,20.42
2022-08-11T11:47:32.694Z,16.08
2022-08-11T11:50:03.219Z,14.70
2022-08-11T11:52:33.285Z,13.23
2022-08-11T11:55:05.848Z,35.50
2022-08-11T11:58:02.500Z,15.50
2022-08-11T12:00:50.545Z,11.60
2022-08-11T12:03:20.586Z,15.20
2022-08-11T12:05:52.347Z,11.98
2022-08-11T12:08:27.598Z,12.20
2022-08-11T12:11:24.663Z,12.82
2022-08-11T12:14:01.314Z,17.23
2022-08-11T12:16:36.717Z,14.57
2022-08-11T12:19:35.561Z,14.57
2022-08-11T12:22:30.140Z,19.23
2022-08-11T12:25:19.901Z,13.00
2022-08-11T12:27:49.829Z,9.30
2022-08-11T12:30:22.674Z,14.23
2022-08-11T12:32:55.511Z,11.85
2022-08-11T12:35:27.055Z,15.50
2022-08-11T12:38:09.853Z,12.52
2022-08-11T12:41:15.573Z,8.10
2022-08-11T12:44:06.846Z,10.07
2022-08-11T12:46:39.487Z,9.10
2022-08-11T12:49:55.424Z,13.90
2022-08-11T12:52:28.686Z,8.40
2022-08-11T12:55:01.542Z,12.85
2022-08-11T12:57:54.028Z,12.35
2022-08-11T13:00:50.056Z,11.27
2022-08-11T13:03:40.065Z,17.67
2022-08-11T13:06:19.403Z,15.65
2022-08-11T13:08:50.307Z,20.58
2022-08-11T13:11:55.804Z,13.32
2022-08-11T13:14:30.139Z,16.55
2022-08-11T13:17:44.088Z,17.58
2022-08-11T13:20:19.917Z,21.65
2022-08-11T13:22:55.558Z,20.10
2022-08-11T13:25:28.091Z,20.58
2022-08-11T13:28:03.087Z,17.45
2022-08-11T13:30:53.810Z,21.77
2022-08-11T13:33:29.875Z,11.70
2022-08-11T13:36:17.038Z,15.98
2022-08-11T13:38:55.869Z,13.02
2022-08-11T13:41:46.789Z,21.58
2022-08-11T13:44:29.737Z,16.80
2022-08-11T13:47:07.663Z,19.95
2022-08-11T13:49:40.320Z,13.70
2022-08-11T13:52:15.646Z,14.20
2022-08-11T13:54:47.838Z,16.90
2022-08-11T13:58:09.172Z,17.98
2022-08-11T14:00:27.642Z,18.33
2022-08-11T14:03:02.585Z,15.35
2022-08-11T14:05:37.292Z,12.02
2022-08-11T14:08:33.427Z,15.90
2022-08-11T14:12:22.153Z,12.85
2022-08-11T14:14:27.198Z,14.20
2022-08-11T14:16:59.791Z,13.98
2022-08-11T14:19:34.506Z,13.60
2022-08-11T14:22:10.100Z,15.43
2022-08-11T14:24:41.311Z,17.73
2022-08-11T14:28:22.221Z,12.60
2022-08-11T14:30:02.914Z,13.65
2022-08-11T14:32:32.740Z,18.38
2022-08-11T14:35:03.593Z,11.40
2022-08-11T14:37:33.224Z,12.82
2022-08-11T14:40:23.371Z,13.73
2022-08-11T14:43:19.284Z,11.88
2022-08-11T14:46:27.622Z,17.85
2022-08-11T14:48:58.372Z,12.75
2022-08-11T14:51:28.086Z,12.25
2022-08-11T14:54:17.400Z,9.93
2022-08-11T14:56:47.110Z,11.85
2022-08-11T14:59:16.813Z,13.57
2022-08-11T15:02:04.741Z,10.82
2022-08-11T15:04:36.511Z,14.30
2022-08-11T15:07:16.915Z,8.68
2022-08-11T15:10:11.825Z,13.23
2022-08-11T15:12:37.172Z,10.70
2022-08-11T15:15:25.680Z,8.98
2022-08-11T15:17:55.975Z,14.98
2022-08-11T15:20:46.382Z,10.35
2022-08-11T15:23:38.592Z,12.68
2022-08-11T15:26:08.881Z,14.15
2022-08-11T15:28:58.369Z,14.52
2022-08-11T15:31:49.560Z,10.20
2022-08-11T15:34:38.427Z,14.13
2022-08-11T15:37:28.407Z,13.40
2022-08-11T15:40:31.633Z,11.80
2022-08-11T15:43:28.990Z,9.30
2022-08-11T15:46:03.638Z,13.60
2022-08-11T15:48:37.990Z,15.93
2022-08-11T15:51:27.796Z,11.75
2022-08-11T15:53:59.562Z,12.57
2022-08-11T15:56:29.483Z,19.05
2022-08-11T15:59:42.397Z,11.95
2022-08-11T16:02:26.025Z,15.52
2022-08-11T16:04:55.786Z,18.05
2022-08-11T16:07:28.617Z,10.35
2022-08-11T16:10:09.833Z,16.95
2022-08-11T16:15:27.601Z,13.40
2022-08-11T16:18:06.407Z,17.77
2022-08-11T16:20:36.032Z,16.23
2022-08-11T16:23:06.178Z,14.82
2022-08-11T16:25:58.096Z,8.23
2022-08-11T16:28:28.716Z,13.70
2022-08-11T16:30:58.331Z,14.07
2022-08-11T16:33:51.135Z,12.05
2022-08-11T16:36:35.888Z,14.35
2022-08-11T16:39:05.541Z,15.18
2022-08-11T16:41:54.584Z,12.48
2022-08-11T16:44:42.744Z,13.65
2022-08-11T16:48:03.602Z,9.90
2022-08-11T16:50:09.441Z,12.93
2022-08-11T16:52:39.115Z,16.45
2022-08-11T16:55:08.973Z,16.90
2022-08-11T16:57:56.671Z,15.38
2022-08-11T17:00:26.465Z,13.63
2022-08-11T17:03:15.632Z,9.80
2022-08-11T17:08:56.688Z,15.10
2022-08-11T17:11:48.812Z,15.43
2022-08-11T17:14:38.472Z,13.07
2022-08-11T17:17:08.923Z,16.67
2022-08-11T17:20:40.288Z,12.25
2022-08-11T17:22:46.375Z,13.63
2022-08-11T17:25:15.922Z,9.18
2022-08-11T17:27:45.733Z,7.55
2022-08-11T17:30:16.208Z,8.82
2022-08-11T17:33:08.343Z,8.25
2022-08-11T17:35:40.140Z,11.52
2022-08-11T17:38:11.268Z,13.50
2022-08-11T17:40:41.737Z,8.55
2022-08-11T17:43:29.860Z,12.43
2022-08-11T17:46:17.291Z,9.35
2022-08-11T17:48:48.799Z,13.05
2022-08-11T17:51:40.064Z,10.10
2022-08-11T17:54:27.614Z,9.27
2022-08-11T17:57:20.426Z,9.50
2022-08-11T17:59:54.309Z,12.68
2022-08-11T18:03:05.215Z,19.40
2022-08-11T18:05:35.628Z,9.95
2022-08-11T18:08:27.254Z,15.60
2022-08-11T18:11:17.258Z,11.63
2022-08-11T18:14:12.134Z,11.00
2022-08-11T18:17:02.637Z,9.82
2022-08-11T18:19:54.436Z,14.77
2022-08-11T18:22:45.951Z,12.63
2022-08-11T18:25:52.051Z,18.17
2022-08-11T18:28:42.530Z,11.88
2022-08-11T18:31:31.078Z,14.05
2022-08-11T18:34:18.799Z,11.43
2022-08-11T18:37:19.453Z,14.73
2022-08-11T18:40:29.797Z,20.77
2022-08-11T18:43:18.240Z,10.15
2022-08-11T18:46:07.899Z,11.25
2022-08-11T18:49:00.225Z,9.98
2022-08-11T18:51:47.974Z,10.88
2022-08-11T18:54:35.671Z,12.82
2022-08-11T18:57:24.195Z,10.25
2022-08-11T19:00:11.721Z,15.57
2022-08-11T19:02:59.819Z,8.82
2022-08-11T19:06:35.867Z,14.23
2022-08-11T19:08:58.323Z,14.23
2022-08-11T19:11:46.114Z,12.75
2022-08-11T19:14:34.225Z,10.32
2022-08-11T19:17:43.545Z,13.93
2022-08-11T19:20:33.012Z,10.45
2022-08-11T19:23:20.621Z,11.88
2022-08-11T19:26:08.703Z,14.43
2022-08-11T19:28:56.409Z,13.68
2022-08-11T19:31:44.962Z,12.75
2022-08-11T19:34:42.668Z,12.40
2022-08-11T19:37:31.878Z,10.30
2022-08-11T19:43:16.860Z,7.90
2022-08-11T19:46:14.327Z,10.05
2022-08-11T19:49:02.606Z,13.17
2022-08-11T19:51:54.148Z,13.37
2022-08-11T19:54:52.139Z,12.68
2022-08-11T19:57:40.484Z,10.65
2022-08-11T20:00:29.983Z,10.40
2022-08-11T20:03:19.362Z,9.05
2022-08-11T20:06:08.052Z,10.30
2022-08-11T20:08:58.624Z,13.95
2022-08-11T20:11:47.110Z,13.68
2022-08-11T20:14:34.595Z,13.68
2022-08-11T20:17:22.250Z,12.57
2022-08-11T20:20:09.862Z,8.57
2022-08-11T20:22:57.373Z,20.65
2022-08-11T20:25:45.166Z,14.73
2022-08-11T20:28:32.724Z,13.35
2022-08-11T20:31:20.216Z,12.57
2022-08-11T20:34:07.952Z,16.92
2022-08-11T20:36:56.708Z,10.35
2022-08-11T20:39:44.777Z,11.40
2022-08-11T20:42:32.895Z,10.10
2022-08-11T20:45:23.907Z,12.73
2022-08-11T20:48:14.683Z,11.68
2022-08-11T20:51:07.333Z,8.35
2022-08-11T20:54:05.824Z,11.32
2022-08-11T20:56:55.837Z,12.18
2022-08-11T20:59:49.336Z,9.95
2022-08-11T21:02:44.520Z,8.57
2022-08-11T21:06:08.249Z,12.30
2022-08-11T21:08:41.836Z,16.00
2022-08-11T21:11:30.191Z,10.65
2022-08-11T21:14:17.748Z,9.70
2022-08-11T21:17:27.824Z,12.18
2022-08-11T21:20:20.623Z,14.75
2022-08-11T21:23:19.854Z,9.70
2022-08-11T21:26:16.155Z,10.23
2022-08-11T21:29:04.443Z,11.55
2022-08-11T21:31:52.586Z,11.83
2022-08-11T21:34:40.707Z,13.55
2022-08-11T21:37:31.088Z,10.77
2022-08-11T21:40:19.088Z,9.63
2022-08-11T21:43:07.969Z,13.45
2022-08-11T21:45:56.213Z,12.27
2022-08-11T21:48:44.944Z,23.77
2022-08-11T21:51:33.517Z,16.80
2022-08-11T21:54:21.405Z,18.25
2022-08-11T21:57:09.168Z,22.77
2022-08-11T22:00:09.257Z,17.25
2022-08-11T22:02:57.321Z,13.20
2022-08-11T22:05:45.561Z,13.27
2022-08-11T22:08:33.834Z,14.50
2022-08-11T22:11:31.950Z,12.37
2022-08-11T22:14:23.354Z,14.98
2022-08-11T22:17:11.422Z,11.45
2022-08-11T22:20:00.581Z,14.52
2022-08-11T22:22:52.894Z,15.27
2022-08-11T22:25:54.243Z,8.90
2022-08-11T22:28:50.035Z,11.45
2022-08-11T22:31:37.412Z,11.68
2022-08-11T22:34:24.954Z,11.18
2022-08-11T22:37:26.856Z,13.75
2022-08-11T22:40:15.154Z,9.18
2022-08-11T22:43:03.791Z,10.30
2022-08-11T22:45:51.627Z,15.15
2022-08-11T22:48:39.383Z,15.40
2022-08-11T22:51:26.992Z,11.02
2022-08-11T22:54:14.655Z,12.25
2022-08-11T22:57:02.265Z,12.95
2022-08-11T22:59:49.879Z,12.75
2022-08-11T23:02:37.660Z,12.35
2022-08-11T23:05:25.875Z,18.45
2022-08-11T23:08:14.248Z,18.55
2022-08-11T23:11:01.819Z,15.77
2022-08-11T23:13:52.804Z,17.27
2022-08-11T23:16:40.317Z,13.35
2022-08-11T23:20:03.691Z,13.32
2022-08-11T23:22:36.930Z,18.85
2022-08-11T23:25:37.903Z,11.45
2022-08-11T23:28:25.892Z,11.68
2022-08-11T23:31:14.663Z,13.20
2022-08-11T23:34:03.345Z,17.40
2022-08-11T23:36:51.083Z,19.35
2022-08-11T23:39:38.711Z,17.02
2022-08-11T23:42:26.569Z,17.02
2022-08-11T23:45:18.537Z,21.65
2022-08-11T23:48:09.904Z,22.63
2022-08-11T23:50:57.516Z,26.38
2022-08-11T23:53:45.226Z,22.08
2022-08-11T23:56:32.805Z,24.40
2022-08-11T23:59:21.041Z,22.90
